Time;durP1;ratioP1;P1;durP2;ratioP2;P2;SDS_P1;SDS_P2;PMS_P1;PMS_P2;Temp;Humidity;BMP_temperature;BMP_pressure;BME280_temperature;BME280_humidity;BME280_pressure;Samples;Min_cycle;Max_cycle;Signal;HPM_P1;HPM_P2
2022/12/16 00:00:05;;;;;;;60.20;34.72;;;-0.10;99.90;;;;;;5095190;28;20482;-84
2022/12/16 00:02:31;;;;;;;51.83;32.30;;;0.00;99.90;;;;;;5096183;28;20122;-84
2022/12/16 00:04:57;;;;;;;51.88;31.77;;;0.00;99.90;;;;;;5096332;28;20043;-84
2022/12/16 00:07:23;;;;;;;56.65;33.95;;;0.00;99.90;;;;;;5096006;28;20051;-84
2022/12/16 00:09:48;;;;;;;58.80;34.95;;;0.00;99.90;;;;;;5095452;28;20082;-84
2022/12/16 00:12:14;;;;;;;61.05;35.33;;;1.30;99.90;;;;;;5094922;28;20055;-83
2022/12/16 00:14:40;;;;;;;58.85;34.50;;;0.00;99.90;;;;;;5112549;28;20062;-84
2022/12/16 00:17:05;;;;;;;54.00;33.85;;;0.00;99.90;;;;;;5095734;28;20051;-84
2022/12/16 00:19:31;;;;;;;61.90;35.10;;;0.40;99.90;;;;;;5095638;28;20054;-84
2022/12/16 00:21:56;;;;;;;61.58;35.70;;;0.70;99.90;;;;;;5112543;28;20047;-84
2022/12/16 00:24:22;;;;;;;59.05;34.63;;;1.30;99.90;;;;;;5099032;27;20047;-85
2022/12/16 00:26:48;;;;;;;55.35;35.42;;;0.00;99.90;;;;;;5098901;27;20126;-84
2022/12/16 00:29:13;;;;;;;57.53;33.78;;;1.20;99.90;;;;;;5099166;27;20047;-84
2022/12/16 00:31:39;;;;;;;60.33;32.63;;;0.00;99.90;;;;;;5099208;27;20051;-84
2022/12/16 00:34:05;;;;;;;55.50;32.67;;;-0.10;99.90;;;;;;5099435;27;20115;-84
2022/12/16 00:36:30;;;;;;;53.42;33.05;;;-0.10;99.90;;;;;;5099020;27;20047;-84
2022/12/16 00:38:56;;;;;;;59.78;33.33;;;-0.10;99.90;;;;;;5099392;27;20051;-84
2022/12/16 00:41:22;;;;;;;56.80;33.03;;;0.00;99.90;;;;;;5099191;27;20050;-84
2022/12/16 00:43:47;;;;;;;54.58;33.97;;;-0.10;99.90;;;;;;5098891;27;20482;-84
2022/12/16 00:46:13;;;;;;;60.97;34.60;;;-0.10;99.90;;;;;;5099015;27;20538;-84
2022/12/16 00:48:39;;;;;;;58.72;33.30;;;1.40;99.90;;;;;;5115905;27;20193;-84
2022/12/16 00:51:04;;;;;;;60.90;33.67;;;0.60;99.90;;;;;;5115648;27;20039;-84
2022/12/16 00:53:30;;;;;;;56.42;33.50;;;1.40;99.90;;;;;;5099005;27;20051;-84
2022/12/16 00:56:06;;;;;;;61.08;32.58;;;1.40;99.90;;;;;;5099054;27;20232;-84
2022/12/16 00:58:32;;;;;;;56.25;34.15;;;-0.20;99.90;;;;;;5115077;27;20046;-84
2022/12/16 01:00:58;;;;;;;57.75;31.92;;;-0.30;99.90;;;;;;5098853;27;20446;-84
2022/12/16 01:03:24;;;;;;;56.00;32.75;;;-0.30;99.90;;;;;;5098589;27;20130;-84
2022/12/16 01:05:49;;;;;;;52.95;32.78;;;-0.20;99.90;;;;;;5098364;27;20108;-84
2022/12/16 01:08:15;;;;;;;55.95;33.50;;;0.80;99.90;;;;;;5115385;27;20047;-83
2022/12/16 01:10:40;;;;;;;53.05;33.55;;;-0.30;99.90;;;;;;5080922;27;20043;-84
2022/12/16 01:13:06;;;;;;;50.75;32.28;;;-0.30;99.90;;;;;;5133537;27;20138;-83
2022/12/16 01:15:32;;;;;;;61.05;34.00;;;-0.30;99.90;;;;;;5098499;27;20047;-84
2022/12/16 01:17:58;;;;;;;57.60;33.92;;;-0.20;99.90;;;;;;5098372;27;20054;-84
2022/12/16 01:20:23;;;;;;;58.58;32.30;;;-0.20;99.90;;;;;;5115251;27;20047;-84
2022/12/16 01:22:49;;;;;;;52.78;32.47;;;-0.20;99.90;;;;;;5098276;27;20078;-84
2022/12/16 01:25:16;;;;;;;59.83;32.80;;;1.40;99.90;;;;;;5098123;27;20043;-84
2022/12/16 01:27:42;;;;;;;53.60;32.35;;;-0.20;99.90;;;;;;5114423;27;20546;-84
2022/12/16 01:30:09;;;;;;;59.75;33.10;;;1.50;99.90;;;;;;5080959;27;20126;-84
2022/12/16 01:32:34;;;;;;;61.38;33.45;;;-0.10;99.90;;;;;;5098319;27;20099;-84
2022/12/16 01:35:00;;;;;;;58.08;33.28;;;-0.10;99.90;;;;;;5097014;27;20415;-83
2022/12/16 01:37:25;;;;;;;58.15;34.10;;;-0.10;99.90;;;;;;5115286;27;20096;-83
2022/12/16 01:39:51;;;;;;;57.63;34.00;;;0.00;99.90;;;;;;5097971;27;20039;-84
2022/12/16 01:42:19;;;;;;;56.38;33.65;;;0.00;99.90;;;;;;5114733;27;20046;-83
2022/12/16 01:44:45;;;;;;;60.47;35.13;;;1.10;99.90;;;;;;5080808;27;20054;-84
2022/12/16 01:47:17;;;;;;;56.88;33.63;;;0.00;99.90;;;;;;5132010;27;20110;-83
2022/12/16 01:50:08;;;;;;;59.25;33.10;;;0.00;99.90;;;;;;5098188;27;20210;-83
2022/12/16 01:52:37;;;;;;;54.22;32.65;;;0.00;99.90;;;;;;5090562;27;20066;-83
2022/12/16 01:55:10;;;;;;;60.70;33.72;;;0.00;99.90;;;;;;5098009;27;20152;-84
2022/12/16 01:57:39;;;;;;;56.60;33.72;;;0.00;99.90;;;;;;5097129;27;20055;-84
2022/12/16 02:00:06;;;;;;;52.08;33.45;;;0.00;99.90;;;;;;5098004;27;20055;-84
2022/12/16 02:02:32;;;;;;;53.22;32.53;;;0.00;99.90;;;;;;5097732;27;20047;-84
2022/12/16 02:07:42;;;;;;;51.70;31.17;;;0.00;99.90;;;;;;5099965;27;20047;-83
2022/12/16 02:10:10;;;;;;;51.60;31.83;;;0.00;99.90;;;;;;5114433;27;20042;-84
2022/12/16 02:12:54;;;;;;;58.65;33.42;;;0.10;99.90;;;;;;5097389;27;20117;-83
2022/12/16 02:15:40;;;;;;;53.65;31.90;;;0.10;99.90;;;;;;5097907;27;20131;-84
2022/12/16 02:18:45;;;;;;;52.28;30.95;;;0.10;99.90;;;;;;5097633;27;20139;-84
2022/12/16 02:21:26;;;;;;;52.58;31.05;;;0.10;99.90;;;;;;5060059;27;20064;-84
2022/12/16 02:24:23;;;;;;;54.25;31.75;;;0.10;99.90;;;;;;5098001;27;20119;-84
2022/12/16 02:26:53;;;;;;;54.53;31.23;;;0.10;99.90;;;;;;5113633;27;20043;-83
2022/12/16 02:29:44;;;;;;;55.63;32.42;;;0.10;99.90;;;;;;5097516;27;20044;-83
2022/12/16 02:32:16;;;;;;;57.08;31.52;;;0.10;99.90;;;;;;5097527;27;20047;-84
2022/12/16 02:34:56;;;;;;;50.45;30.95;;;0.10;99.90;;;;;;5113986;27;20043;-84
2022/12/16 02:37:33;;;;;;;51.05;29.13;;;0.10;99.90;;;;;;5097322;27;20722;-84
2022/12/16 02:40:06;;;;;;;43.83;25.52;;;0.10;99.90;;;;;;5114371;27;20108;-84
2022/12/16 02:42:40;;;;;;;51.42;30.00;;;0.20;99.90;;;;;;5097300;27;20047;-84
2022/12/16 02:45:14;;;;;;;49.28;27.73;;;0.40;99.90;;;;;;5113911;27;20047;-83
2022/12/16 02:47:39;;;;;;;45.00;27.90;;;0.20;99.90;;;;;;5095946;27;20051;-83
2022/12/16 02:50:16;;;;;;;48.05;28.25;;;0.20;99.90;;;;;;5113422;27;20046;-84
2022/12/16 02:52:41;;;;;;;40.42;26.67;;;0.20;99.90;;;;;;5096818;27;20051;-83
2022/12/16 02:55:07;;;;;;;43.10;25.55;;;0.20;99.90;;;;;;5096908;27;20092;-83
2022/12/16 02:58:06;;;;;;;41.63;25.50;;;0.30;99.90;;;;;;5096027;27;20054;-85
2022/12/16 03:00:57;;;;;;;45.05;24.48;;;0.40;99.90;;;;;;5068041;27;20777;-84
2022/12/16 03:03:26;;;;;;;44.30;26.40;;;0.30;99.90;;;;;;5063903;27;20390;-84
2022/12/16 03:05:52;;;;;;;46.60;25.48;;;1.50;99.90;;;;;;5113438;27;20043;-83
2022/12/16 03:08:27;;;;;;;49.58;25.95;;;0.30;99.90;;;;;;5095939;27;20054;-84
2022/12/16 03:10:58;;;;;;;41.28;25.13;;;0.30;99.90;;;;;;5080509;27;20085;-83
2022/12/16 03:13:23;;;;;;;44.30;25.20;;;1.30;99.90;;;;;;5112884;27;20062;-84
2022/12/16 03:15:51;;;;;;;43.95;24.50;;;0.40;99.90;;;;;;5096336;27;20043;-83
2022/12/16 03:18:17;;;;;;;45.75;24.08;;;0.80;99.90;;;;;;5113041;27;20150;-84
2022/12/16 03:20:48;;;;;;;38.72;22.73;;;0.40;99.90;;;;;;5113224;27;20196;-83
2022/12/16 03:23:16;;;;;;;42.35;24.77;;;0.40;99.90;;;;;;5095591;27;20133;-84
2022/12/16 03:25:43;;;;;;;41.20;23.17;;;0.60;99.90;;;;;;5079144;28;20585;-83
2022/12/16 03:28:39;;;;;;;43.15;23.50;;;0.40;99.90;;;;;;5112695;27;20103;-84
2022/12/16 03:31:16;;;;;;;38.25;22.13;;;1.00;99.90;;;;;;5081751;28;20062;-83
2022/12/16 03:34:09;;;;;;;40.40;21.00;;;0.40;99.90;;;;;;5079770;28;20050;-83
2022/12/16 03:36:35;;;;;;;36.13;22.25;;;0.50;99.90;;;;;;5091631;28;20059;-84
2022/12/16 03:39:02;;;;;;;39.75;23.35;;;0.40;99.90;;;;;;5095889;28;20090;-83
2022/12/16 03:41:27;;;;;;;36.03;22.77;;;0.50;99.90;;;;;;5079497;28;20055;-84
2022/12/16 03:43:53;;;;;;;38.05;23.58;;;0.50;99.90;;;;;;5096294;28;20058;-85
2022/12/16 03:46:19;;;;;;;40.22;23.35;;;0.50;99.90;;;;;;5096242;28;20139;-83
2022/12/16 03:48:46;;;;;;;40.83;22.70;;;0.50;99.90;;;;;;5095949;28;20183;-84
2022/12/16 03:51:11;;;;;;;37.63;23.92;;;0.60;99.90;;;;;;5095905;28;20090;-84
2022/12/16 03:53:37;;;;;;;38.83;23.92;;;0.80;99.90;;;;;;5113158;28;20514;-83
2022/12/16 03:56:03;;;;;;;41.45;24.98;;;1.60;99.90;;;;;;5096137;28;20448;-84
2022/12/16 03:58:29;;;;;;;36.28;23.38;;;0.50;99.90;;;;;;5097501;27;20039;-83
2022/12/16 04:00:55;;;;;;;37.78;24.83;;;0.60;99.90;;;;;;5099864;27;20051;-84
2022/12/16 04:03:21;;;;;;;41.20;25.55;;;1.30;99.90;;;;;;5082968;27;20058;-83
2022/12/16 04:05:47;;;;;;;42.65;25.25;;;0.60;99.90;;;;;;5134958;27;20043;-83
2022/12/16 04:08:12;;;;;;;40.05;24.67;;;0.50;99.90;;;;;;5099686;27;20494;-83
2022/12/16 04:24:28;;;;;;;34.67;22.33;;;0.60;99.90;;;;;;5074680;27;20054;-83
2022/12/16 04:30:17;;;;;;;35.47;21.98;;;0.60;99.90;;;;;;5116980;27;20091;-84
2022/12/16 04:32:23;;;;;;;35.53;20.83;;;2.10;99.90;;;;;;5117003;27;20051;-83
2022/12/16 04:34:50;;;;;;;35.33;22.48;;;1.70;99.90;;;;;;5100018;27;20120;-83
